sensor_id;sensor_type;location;lat;lon;timestamp;P1;durP1;ratioP1;P2;durP2;ratioP2
13173;SDS011;6652;48.802;9.190;2024-03-02T00:00:49;29.80;;;15.30;;
13173;SDS011;6652;48.802;9.190;2024-03-02T00:03:17;30.15;;;15.50;;
13173;SDS011;6652;48.802;9.190;2024-03-02T00:05:44;26.92;;;14.82;;
13173;SDS011;6652;48.802;9.190;2024-03-02T00:08:17;25.20;;;14.83;;
13173;SDS011;6652;48.802;9.190;2024-03-02T00:10:51;26.88;;;15.05;;
13173;SDS011;6652;48.802;9.190;2024-03-02T00:13:23;26.60;;;14.68;;
13173;SDS011;6652;48.802;9.190;2024-03-02T00:15:51;23.33;;;14.02;;
13173;SDS011;6652;48.802;9.190;2024-03-02T00:18:20;23.52;;;14.80;;
13173;SDS011;6652;48.802;9.190;2024-03-02T00:20:57;28.65;;;14.65;;
13173;SDS011;6652;48.802;9.190;2024-03-02T00:23:24;27.48;;;13.88;;
13173;SDS011;6652;48.802;9.190;2024-03-02T00:25:57;25.58;;;14.48;;
13173;SDS011;6652;48.802;9.190;2024-03-02T00:28:25;24.60;;;14.43;;
13173;SDS011;6652;48.802;9.190;2024-03-02T00:30:57;30.95;;;16.02;;
13173;SDS011;6652;48.802;9.190;2024-03-02T00:33:26;27.02;;;15.73;;
13173;SDS011;6652;48.802;9.190;2024-03-02T00:35:54;25.30;;;15.52;;
13173;SDS011;6652;48.802;9.190;2024-03-02T00:38:21;25.55;;;15.77;;
13173;SDS011;6652;48.802;9.190;2024-03-02T00:40:48;25.90;;;14.50;;
13173;SDS011;6652;48.802;9.190;2024-03-02T00:43:28;27.55;;;15.45;;
13173;SDS011;6652;48.802;9.190;2024-03-02T00:46:09;26.00;;;15.50;;
13173;SDS011;6652;48.802;9.190;2024-03-02T00:48:46;28.92;;;14.75;;
13173;SDS011;6652;48.802;9.190;2024-03-02T00:51:17;25.45;;;15.40;;
13173;SDS011;6652;48.802;9.190;2024-03-02T00:53:44;30.88;;;16.00;;
13173;SDS011;6652;48.802;9.190;2024-03-02T00:56:11;26.20;;;15.65;;
13173;SDS011;6652;48.802;9.190;2024-03-02T00:58:39;26.67;;;15.02;;
13173;SDS011;6652;48.802;9.190;2024-03-02T01:01:06;24.77;;;15.13;;
13173;SDS011;6652;48.802;9.190;2024-03-02T01:03:33;27.02;;;16.08;;
13173;SDS011;6652;48.802;9.190;2024-03-02T01:06:00;26.70;;;15.38;;
13173;SDS011;6652;48.802;9.190;2024-03-02T01:08:27;28.70;;;16.52;;
13173;SDS011;6652;48.802;9.190;2024-03-02T01:10:54;27.63;;;16.15;;
13173;SDS011;6652;48.802;9.190;2024-03-02T01:13:21;26.65;;;15.65;;
13173;SDS011;6652;48.802;9.190;2024-03-02T01:15:50;30.27;;;16.08;;
13173;SDS011;6652;48.802;9.190;2024-03-02T01:18:18;25.92;;;15.25;;
13173;SDS011;6652;48.802;9.190;2024-03-02T01:20:45;27.30;;;16.10;;
13173;SDS011;6652;48.802;9.190;2024-03-02T01:23:12;25.35;;;15.90;;
13173;SDS011;6652;48.802;9.190;2024-03-02T01:25:39;25.25;;;15.32;;
13173;SDS011;6652;48.802;9.190;2024-03-02T01:28:06;28.40;;;15.80;;
13173;SDS011;6652;48.802;9.190;2024-03-02T01:30:33;28.80;;;16.77;;
13173;SDS011;6652;48.802;9.190;2024-03-02T01:33:01;27.98;;;16.33;;
13173;SDS011;6652;48.802;9.190;2024-03-02T01:35:30;30.25;;;15.93;;
13173;SDS011;6652;48.802;9.190;2024-03-02T01:37:57;25.15;;;15.52;;
13173;SDS011;6652;48.802;9.190;2024-03-02T01:40:24;32.45;;;16.75;;
13173;SDS011;6652;48.802;9.190;2024-03-02T01:42:51;29.27;;;16.00;;
13173;SDS011;6652;48.802;9.190;2024-03-02T01:45:19;26.85;;;16.50;;
13173;SDS011;6652;48.802;9.190;2024-03-02T01:47:46;28.90;;;17.45;;
13173;SDS011;6652;48.802;9.190;2024-03-02T01:50:15;28.70;;;15.82;;
13173;SDS011;6652;48.802;9.190;2024-03-02T01:52:50;35.42;;;16.65;;
13173;SDS011;6652;48.802;9.190;2024-03-02T01:55:17;30.17;;;17.83;;
13173;SDS011;6652;48.802;9.190;2024-03-02T01:57:44;34.50;;;18.30;;
13173;SDS011;6652;48.802;9.190;2024-03-02T02:00:12;33.75;;;18.92;;
13173;SDS011;6652;48.802;9.190;2024-03-02T02:02:39;30.55;;;17.10;;
13173;SDS011;6652;48.802;9.190;2024-03-02T02:05:07;33.25;;;18.17;;
13173;SDS011;6652;48.802;9.190;2024-03-02T02:07:35;37.53;;;20.48;;
13173;SDS011;6652;48.802;9.190;2024-03-02T02:10:03;39.70;;;21.85;;
13173;SDS011;6652;48.802;9.190;2024-03-02T02:12:31;31.80;;;18.42;;
13173;SDS011;6652;48.802;9.190;2024-03-02T02:14:58;31.05;;;16.73;;
13173;SDS011;6652;48.802;9.190;2024-03-02T02:17:25;36.67;;;19.90;;
13173;SDS011;6652;48.802;9.190;2024-03-02T02:19:52;37.08;;;20.60;;
13173;SDS011;6652;48.802;9.190;2024-03-02T02:22:20;35.10;;;18.75;;
13173;SDS011;6652;48.802;9.190;2024-03-02T02:24:47;37.10;;;20.00;;
13173;SDS011;6652;48.802;9.190;2024-03-02T02:27:14;34.83;;;18.13;;
13173;SDS011;6652;48.802;9.190;2024-03-02T02:29:40;36.63;;;19.73;;
13173;SDS011;6652;48.802;9.190;2024-03-02T02:32:08;31.67;;;19.08;;
13173;SDS011;6652;48.802;9.190;2024-03-02T02:34:35;36.80;;;20.00;;
13173;SDS011;6652;48.802;9.190;2024-03-02T02:37:02;35.50;;;19.40;;
13173;SDS011;6652;48.802;9.190;2024-03-02T02:39:30;38.67;;;20.67;;
13173;SDS011;6652;48.802;9.190;2024-03-02T02:41:57;42.17;;;21.17;;
13173;SDS011;6652;48.802;9.190;2024-03-02T02:44:26;32.17;;;19.48;;
13173;SDS011;6652;48.802;9.190;2024-03-02T02:46:53;43.92;;;22.80;;
13173;SDS011;6652;48.802;9.190;2024-03-02T02:49:19;36.08;;;21.17;;
13173;SDS011;6652;48.802;9.190;2024-03-02T02:51:46;40.03;;;20.48;;
13173;SDS011;6652;48.802;9.190;2024-03-02T02:54:13;40.60;;;21.67;;
13173;SDS011;6652;48.802;9.190;2024-03-02T02:56:41;34.70;;;20.48;;
13173;SDS011;6652;48.802;9.190;2024-03-02T02:59:08;45.10;;;23.17;;
13173;SDS011;6652;48.802;9.190;2024-03-02T03:01:35;38.28;;;21.75;;
13173;SDS011;6652;48.802;9.190;2024-03-02T03:04:02;43.22;;;22.13;;
13173;SDS011;6652;48.802;9.190;2024-03-02T03:06:29;38.00;;;21.25;;
13173;SDS011;6652;48.802;9.190;2024-03-02T03:08:55;41.28;;;22.67;;
13173;SDS011;6652;48.802;9.190;2024-03-02T03:11:22;44.47;;;22.55;;
13173;SDS011;6652;48.802;9.190;2024-03-02T03:13:52;44.72;;;22.23;;
13173;SDS011;6652;48.802;9.190;2024-03-02T03:16:20;38.25;;;22.10;;
13173;SDS011;6652;48.802;9.190;2024-03-02T03:18:47;42.85;;;22.33;;
13173;SDS011;6652;48.802;9.190;2024-03-02T03:21:16;42.00;;;21.98;;
13173;SDS011;6652;48.802;9.190;2024-03-02T03:23:43;38.63;;;21.92;;
13173;SDS011;6652;48.802;9.190;2024-03-02T03:26:10;38.22;;;20.30;;
13173;SDS011;6652;48.802;9.190;2024-03-02T03:28:37;36.75;;;20.50;;
13173;SDS011;6652;48.802;9.190;2024-03-02T03:31:05;39.30;;;20.77;;
13173;SDS011;6652;48.802;9.190;2024-03-02T03:33:33;38.88;;;22.73;;
13173;SDS011;6652;48.802;9.190;2024-03-02T03:36:00;47.90;;;23.75;;
13173;SDS011;6652;48.802;9.190;2024-03-02T03:38:28;41.15;;;23.02;;
13173;SDS011;6652;48.802;9.190;2024-03-02T03:40:55;42.25;;;21.13;;
13173;SDS011;6652;48.802;9.190;2024-03-02T03:43:22;40.95;;;21.90;;
13173;SDS011;6652;48.802;9.190;2024-03-02T03:45:48;44.35;;;22.50;;
13173;SDS011;6652;48.802;9.190;2024-03-02T03:48:17;37.20;;;21.17;;
13173;SDS011;6652;48.802;9.190;2024-03-02T03:50:43;44.25;;;22.15;;
13173;SDS011;6652;48.802;9.190;2024-03-02T03:53:10;41.60;;;23.00;;
13173;SDS011;6652;48.802;9.190;2024-03-02T03:55:37;40.58;;;20.98;;
13173;SDS011;6652;48.802;9.190;2024-03-02T03:58:04;38.28;;;20.70;;
13173;SDS011;6652;48.802;9.190;2024-03-02T04:00:31;43.63;;;21.33;;
13173;SDS011;6652;48.802;9.190;2024-03-02T04:02:58;39.97;;;21.83;;
13173;SDS011;6652;48.802;9.190;2024-03-02T04:05:26;42.17;;;21.23;;
13173;SDS011;6652;48.802;9.190;2024-03-02T04:07:53;33.13;;;20.90;;
13173;SDS011;6652;48.802;9.190;2024-03-02T04:10:20;38.67;;;22.67;;
13173;SDS011;6652;48.802;9.190;2024-03-02T04:12:48;38.10;;;22.55;;
13173;SDS011;6652;48.802;9.190;2024-03-02T04:15:15;37.00;;;19.88;;
13173;SDS011;6652;48.802;9.190;2024-03-02T04:17:43;36.45;;;20.58;;
13173;SDS011;6652;48.802;9.190;2024-03-02T04:20:10;36.35;;;20.63;;
13173;SDS011;6652;48.802;9.190;2024-03-02T04:22:39;37.20;;;20.30;;
13173;SDS011;6652;48.802;9.190;2024-03-02T04:25:06;46.35;;;21.63;;
13173;SDS011;6652;48.802;9.190;2024-03-02T04:27:34;48.33;;;24.20;;
13173;SDS011;6652;48.802;9.190;2024-03-02T04:30:01;39.95;;;21.80;;
13173;SDS011;6652;48.802;9.190;2024-03-02T04:32:30;44.30;;;20.30;;
13173;SDS011;6652;48.802;9.190;2024-03-02T04:34:57;45.35;;;22.95;;
13173;SDS011;6652;48.802;9.190;2024-03-02T04:37:23;34.20;;;19.25;;
13173;SDS011;6652;48.802;9.190;2024-03-02T04:39:52;40.20;;;21.70;;
13173;SDS011;6652;48.802;9.190;2024-03-02T04:42:18;38.85;;;20.75;;
13173;SDS011;6652;48.802;9.190;2024-03-02T04:44:45;38.03;;;20.10;;
13173;SDS011;6652;48.802;9.190;2024-03-02T04:47:13;37.70;;;21.17;;
13173;SDS011;6652;48.802;9.190;2024-03-02T04:49:39;35.42;;;19.67;;
13173;SDS011;6652;48.802;9.190;2024-03-02T04:52:06;45.42;;;19.58;;
13173;SDS011;6652;48.802;9.190;2024-03-02T04:54:33;51.25;;;23.23;;
13173;SDS011;6652;48.802;9.190;2024-03-02T04:57:22;45.50;;;22.63;;
13173;SDS011;6652;48.802;9.190;2024-03-02T04:59:48;48.83;;;22.52;;
13173;SDS011;6652;48.802;9.190;2024-03-02T05:02:15;46.30;;;22.63;;
13173;SDS011;6652;48.802;9.190;2024-03-02T05:04:42;44.45;;;23.63;;
13173;SDS011;6652;48.802;9.190;2024-03-02T05:07:09;42.55;;;22.08;;
13173;SDS011;6652;48.802;9.190;2024-03-02T05:09:36;44.33;;;22.80;;
13173;SDS011;6652;48.802;9.190;2024-03-02T05:12:04;45.90;;;22.30;;
13173;SDS011;6652;48.802;9.190;2024-03-02T05:14:49;43.00;;;22.25;;
13173;SDS011;6652;48.802;9.190;2024-03-02T05:17:16;43.30;;;23.00;;
13173;SDS011;6652;48.802;9.190;2024-03-02T05:19:43;42.13;;;21.77;;
13173;SDS011;6652;48.802;9.190;2024-03-02T05:22:13;42.15;;;21.67;;
13173;SDS011;6652;48.802;9.190;2024-03-02T05:24:39;41.03;;;20.42;;
13173;SDS011;6652;48.802;9.190;2024-03-02T05:27:07;42.20;;;21.33;;
13173;SDS011;6652;48.802;9.190;2024-03-02T05:29:34;41.47;;;21.40;;
13173;SDS011;6652;48.802;9.190;2024-03-02T05:32:02;43.38;;;21.50;;
13173;SDS011;6652;48.802;9.190;2024-03-02T05:34:30;48.63;;;22.30;;
13173;SDS011;6652;48.802;9.190;2024-03-02T05:36:59;46.22;;;23.13;;
13173;SDS011;6652;48.802;9.190;2024-03-02T05:39:26;45.15;;;23.27;;
13173;SDS011;6652;48.802;9.190;2024-03-02T05:41:54;44.47;;;22.73;;
13173;SDS011;6652;48.802;9.190;2024-03-02T05:44:21;41.92;;;21.98;;
13173;SDS011;6652;48.802;9.190;2024-03-02T05:46:48;46.50;;;22.08;;
13173;SDS011;6652;48.802;9.190;2024-03-02T05:49:17;42.15;;;20.70;;
13173;SDS011;6652;48.802;9.190;2024-03-02T05:51:44;41.20;;;21.77;;
13173;SDS011;6652;48.802;9.190;2024-03-02T05:54:13;42.22;;;21.98;;
13173;SDS011;6652;48.802;9.190;2024-03-02T05:56:40;48.15;;;22.60;;
13173;SDS011;6652;48.802;9.190;2024-03-02T05:59:07;41.22;;;21.90;;
13173;SDS011;6652;48.802;9.190;2024-03-02T06:01:37;45.45;;;23.00;;
13173;SDS011;6652;48.802;9.190;2024-03-02T06:04:04;47.28;;;23.65;;
13173;SDS011;6652;48.802;9.190;2024-03-02T06:06:33;40.70;;;21.52;;
13173;SDS011;6652;48.802;9.190;2024-03-02T06:09:00;43.25;;;23.90;;
13173;SDS011;6652;48.802;9.190;2024-03-02T06:11:27;44.17;;;22.77;;
13173;SDS011;6652;48.802;9.190;2024-03-02T06:13:54;42.47;;;21.90;;
13173;SDS011;6652;48.802;9.190;2024-03-02T06:16:21;40.13;;;21.33;;
13173;SDS011;6652;48.802;9.190;2024-03-02T06:18:48;40.60;;;21.00;;
13173;SDS011;6652;48.802;9.190;2024-03-02T06:21:15;45.75;;;22.95;;
13173;SDS011;6652;48.802;9.190;2024-03-02T06:23:45;52.00;;;24.38;;
13173;SDS011;6652;48.802;9.190;2024-03-02T06:26:12;40.38;;;22.55;;
13173;SDS011;6652;48.802;9.190;2024-03-02T06:28:39;43.17;;;22.83;;
13173;SDS011;6652;48.802;9.190;2024-03-02T06:31:06;48.50;;;23.20;;
13173;SDS011;6652;48.802;9.190;2024-03-02T06:33:33;51.08;;;23.63;;
13173;SDS011;6652;48.802;9.190;2024-03-02T06:36:00;44.53;;;22.85;;
13173;SDS011;6652;48.802;9.190;2024-03-02T06:38:28;46.55;;;22.20;;
13173;SDS011;6652;48.802;9.190;2024-03-02T06:41:00;42.50;;;22.40;;
13173;SDS011;6652;48.802;9.190;2024-03-02T06:43:28;37.55;;;20.05;;
13173;SDS011;6652;48.802;9.190;2024-03-02T06:45:57;38.58;;;20.92;;
13173;SDS011;6652;48.802;9.190;2024-03-02T06:48:24;39.53;;;21.15;;
13173;SDS011;6652;48.802;9.190;2024-03-02T06:50:51;42.90;;;21.48;;
13173;SDS011;6652;48.802;9.190;2024-03-02T06:53:18;35.90;;;19.38;;
13173;SDS011;6652;48.802;9.190;2024-03-02T06:55:46;36.60;;;19.63;;
13173;SDS011;6652;48.802;9.190;2024-03-02T06:58:15;36.97;;;20.23;;
13173;SDS011;6652;48.802;9.190;2024-03-02T07:00:42;36.20;;;18.90;;
13173;SDS011;6652;48.802;9.190;2024-03-02T07:03:09;30.75;;;17.58;;
13173;SDS011;6652;48.802;9.190;2024-03-02T07:05:37;31.20;;;18.00;;
13173;SDS011;6652;48.802;9.190;2024-03-02T07:08:06;44.58;;;21.77;;
13173;SDS011;6652;48.802;9.190;2024-03-02T07:10:36;38.15;;;20.40;;
13173;SDS011;6652;48.802;9.190;2024-03-02T07:13:03;30.77;;;19.45;;
13173;SDS011;6652;48.802;9.190;2024-03-02T07:15:32;30.70;;;17.13;;
13173;SDS011;6652;48.802;9.190;2024-03-02T07:18:31;24.42;;;15.60;;
13173;SDS011;6652;48.802;9.190;2024-03-02T07:20:58;22.58;;;13.43;;
13173;SDS011;6652;48.802;9.190;2024-03-02T07:23:26;26.13;;;15.05;;
13173;SDS011;6652;48.802;9.190;2024-03-02T07:25:53;23.67;;;14.70;;
13173;SDS011;6652;48.802;9.190;2024-03-02T07:28:21;25.23;;;14.23;;
13173;SDS011;6652;48.802;9.190;2024-03-02T07:30:58;23.33;;;13.32;;
13173;SDS011;6652;48.802;9.190;2024-03-02T07:33:26;18.20;;;12.23;;
13173;SDS011;6652;48.802;9.190;2024-03-02T07:35:53;19.33;;;13.18;;
13173;SDS011;6652;48.802;9.190;2024-03-02T07:38:21;19.92;;;13.63;;
13173;SDS011;6652;48.802;9.190;2024-03-02T07:40:49;21.02;;;13.30;;
13173;SDS011;6652;48.802;9.190;2024-03-02T07:43:16;22.30;;;14.48;;
13173;SDS011;6652;48.802;9.190;2024-03-02T07:45:44;21.17;;;14.75;;
13173;SDS011;6652;48.802;9.190;2024-03-02T07:48:15;22.50;;;13.93;;
13173;SDS011;6652;48.802;9.190;2024-03-02T07:50:42;21.85;;;14.00;;
13173;SDS011;6652;48.802;9.190;2024-03-02T07:53:13;23.17;;;14.23;;
13173;SDS011;6652;48.802;9.190;2024-03-02T07:55:42;20.63;;;13.85;;
13173;SDS011;6652;48.802;9.190;2024-03-02T07:58:09;25.95;;;13.55;;
13173;SDS011;6652;48.802;9.190;2024-03-02T08:00:36;23.63;;;12.80;;
13173;SDS011;6652;48.802;9.190;2024-03-02T08:03:06;24.27;;;13.65;;
13173;SDS011;6652;48.802;9.190;2024-03-02T08:05:38;22.70;;;12.95;;
13173;SDS011;6652;48.802;9.190;2024-03-02T08:08:06;24.17;;;13.30;;
13173;SDS011;6652;48.802;9.190;2024-03-02T08:10:34;23.13;;;13.38;;
13173;SDS011;6652;48.802;9.190;2024-03-02T08:13:01;22.73;;;14.00;;
13173;SDS011;6652;48.802;9.190;2024-03-02T08:15:31;22.23;;;12.68;;
13173;SDS011;6652;48.802;9.190;2024-03-02T08:17:59;22.10;;;12.80;;
13173;SDS011;6652;48.802;9.190;2024-03-02T08:20:28;21.92;;;12.35;;
13173;SDS011;6652;48.802;9.190;2024-03-02T08:22:58;18.27;;;11.52;;
13173;SDS011;6652;48.802;9.190;2024-03-02T08:25:25;23.00;;;12.55;;
13173;SDS011;6652;48.802;9.190;2024-03-02T08:27:52;23.02;;;12.85;;
13173;SDS011;6652;48.802;9.190;2024-03-02T08:30:21;21.05;;;11.43;;
13173;SDS011;6652;48.802;9.190;2024-03-02T08:32:48;19.63;;;10.82;;
13173;SDS011;6652;48.802;9.190;2024-03-02T08:35:18;19.58;;;11.32;;
13173;SDS011;6652;48.802;9.190;2024-03-02T08:37:47;16.85;;;10.57;;
13173;SDS011;6652;48.802;9.190;2024-03-02T08:40:20;14.98;;;10.40;;
13173;SDS011;6652;48.802;9.190;2024-03-02T08:42:47;17.83;;;10.02;;
13173;SDS011;6652;48.802;9.190;2024-03-02T08:45:14;15.88;;;9.30;;
13173;SDS011;6652;48.802;9.190;2024-03-02T08:47:41;16.83;;;9.80;;
13173;SDS011;6652;48.802;9.190;2024-03-02T08:50:11;12.05;;;8.95;;
13173;SDS011;6652;48.802;9.190;2024-03-02T08:52:38;12.30;;;8.73;;
13173;SDS011;6652;48.802;9.190;2024-03-02T08:55:06;12.85;;;8.75;;
13173;SDS011;6652;48.802;9.190;2024-03-02T08:57:36;12.60;;;7.82;;
13173;SDS011;6652;48.802;9.190;2024-03-02T09:00:03;13.52;;;8.77;;
13173;SDS011;6652;48.802;9.190;2024-03-02T09:02:32;10.77;;;8.20;;
13173;SDS011;6652;48.802;9.190;2024-03-02T09:05:00;9.68;;;7.25;;
13173;SDS011;6652;48.802;9.190;2024-03-02T09:07:27;10.60;;;8.20;;
13173;SDS011;6652;48.802;9.190;2024-03-02T09:09:54;9.80;;;7.68;;
13173;SDS011;6652;48.802;9.190;2024-03-02T09:12:21;12.63;;;7.95;;
13173;SDS011;6652;48.802;9.190;2024-03-02T09:14:49;11.05;;;7.78;;
13173;SDS011;6652;48.802;9.190;2024-03-02T09:17:16;10.38;;;7.78;;
13173;SDS011;6652;48.802;9.190;2024-03-02T09:19:43;11.82;;;7.97;;
13173;SDS011;6652;48.802;9.190;2024-03-02T09:22:10;12.32;;;8.32;;
13173;SDS011;6652;48.802;9.190;2024-03-02T09:24:38;12.52;;;7.50;;
13173;SDS011;6652;48.802;9.190;2024-03-02T09:27:05;10.13;;;7.57;;
13173;SDS011;6652;48.802;9.190;2024-03-02T09:29:33;9.63;;;7.18;;
13173;SDS011;6652;48.802;9.190;2024-03-02T09:32:02;9.88;;;7.63;;
13173;SDS011;6652;48.802;9.190;2024-03-02T09:34:30;10.35;;;7.03;;
13173;SDS011;6652;48.802;9.190;2024-03-02T09:36:57;9.32;;;7.30;;
13173;SDS011;6652;48.802;9.190;2024-03-02T09:39:29;10.40;;;7.47;;
13173;SDS011;6652;48.802;9.190;2024-03-02T09:41:58;8.48;;;6.35;;
13173;SDS011;6652;48.802;9.190;2024-03-02T09:44:32;8.63;;;6.22;;
13173;SDS011;6652;48.802;9.190;2024-03-02T09:47:00;12.63;;;6.93;;
13173;SDS011;6652;48.802;9.190;2024-03-02T09:49:28;7.60;;;5.82;;
13173;SDS011;6652;48.802;9.190;2024-03-02T09:51:57;6.93;;;5.82;;
13173;SDS011;6652;48.802;9.190;2024-03-02T09:54:24;8.55;;;6.47;;
13173;SDS011;6652;48.802;9.190;2024-03-02T09:56:51;8.85;;;5.90;;
13173;SDS011;6652;48.802;9.190;2024-03-02T09:59:18;7.32;;;6.00;;
13173;SDS011;6652;48.802;9.190;2024-03-02T10:01:55;9.77;;;5.97;;
13173;SDS011;6652;48.802;9.190;2024-03-02T10:04:24;8.05;;;5.30;;
13173;SDS011;6652;48.802;9.190;2024-03-02T10:07:04;7.57;;;5.40;;
13173;SDS011;6652;48.802;9.190;2024-03-02T10:09:40;7.75;;;5.43;;
13173;SDS011;6652;48.802;9.190;2024-03-02T10:12:08;7.50;;;5.60;;
13173;SDS011;6652;48.802;9.190;2024-03-02T10:14:49;7.65;;;5.45;;
13173;SDS011;6652;48.802;9.190;2024-03-02T10:17:43;6.72;;;5.53;;
13173;SDS011;6652;48.802;9.190;2024-03-02T10:20:22;7.40;;;5.35;;
13173;SDS011;6652;48.802;9.190;2024-03-02T10:25:46;7.18;;;5.20;;
13173;SDS011;6652;48.802;9.190;2024-03-02T10:28:27;8.38;;;5.20;;
13173;SDS011;6652;48.802;9.190;2024-03-02T10:30:55;8.98;;;5.75;;
13173;SDS011;6652;48.802;9.190;2024-03-02T10:33:23;6.70;;;5.30;;
13173;SDS011;6652;48.802;9.190;2024-03-02T10:36:04;6.82;;;4.88;;
13173;SDS011;6652;48.802;9.190;2024-03-02T10:38:38;7.68;;;5.05;;
13173;SDS011;6652;48.802;9.190;2024-03-02T10:41:09;7.20;;;4.70;;
13173;SDS011;6652;48.802;9.190;2024-03-02T10:46:24;6.05;;;4.70;;
13173;SDS011;6652;48.802;9.190;2024-03-02T10:48:56;7.88;;;4.60;;
13173;SDS011;6652;48.802;9.190;2024-03-02T10:51:24;8.23;;;4.55;;
13173;SDS011;6652;48.802;9.190;2024-03-02T10:53:55;12.63;;;5.05;;
13173;SDS011;6652;48.802;9.190;2024-03-02T10:56:27;6.82;;;4.95;;
13173;SDS011;6652;48.802;9.190;2024-03-02T10:59:01;8.40;;;4.53;;
13173;SDS011;6652;48.802;9.190;2024-03-02T11:01:29;6.60;;;4.65;;
13173;SDS011;6652;48.802;9.190;2024-03-02T11:03:59;6.82;;;4.40;;
13173;SDS011;6652;48.802;9.190;2024-03-02T11:06:30;7.15;;;4.30;;
13173;SDS011;6652;48.802;9.190;2024-03-02T11:09:06;6.05;;;4.00;;
13173;SDS011;6652;48.802;9.190;2024-03-02T11:11:49;7.28;;;4.57;;
13173;SDS011;6652;48.802;9.190;2024-03-02T11:14:37;7.68;;;4.15;;
13173;SDS011;6652;48.802;9.190;2024-03-02T11:17:08;5.88;;;4.07;;
13173;SDS011;6652;48.802;9.190;2024-03-02T11:19:40;6.25;;;4.47;;
13173;SDS011;6652;48.802;9.190;2024-03-02T11:22:08;6.95;;;4.28;;
13173;SDS011;6652;48.802;9.190;2024-03-02T11:24:40;5.53;;;3.85;;
13173;SDS011;6652;48.802;9.190;2024-03-02T11:33:22;8.13;;;4.22;;
13173;SDS011;6652;48.802;9.190;2024-03-02T11:35:52;6.40;;;4.00;;
13173;SDS011;6652;48.802;9.190;2024-03-02T11:38:20;5.05;;;2.70;;
13173;SDS011;6652;48.802;9.190;2024-03-02T11:43:39;3.90;;;3.15;;
13173;SDS011;6652;48.802;9.190;2024-03-02T11:46:10;3.55;;;2.60;;
13173;SDS011;6652;48.802;9.190;2024-03-02T11:48:51;3.10;;;2.30;;
13173;SDS011;6652;48.802;9.190;2024-03-02T11:51:20;5.18;;;2.30;;
13173;SDS011;6652;48.802;9.190;2024-03-02T11:53:56;8.02;;;2.40;;
13173;SDS011;6652;48.802;9.190;2024-03-02T11:59:01;2.83;;;1.90;;
13173;SDS011;6652;48.802;9.190;2024-03-02T12:01:41;3.47;;;2.00;;
13173;SDS011;6652;48.802;9.190;2024-03-02T12:04:09;1.67;;;0.90;;
13173;SDS011;6652;48.802;9.190;2024-03-02T12:06:36;1.63;;;1.20;;
13173;SDS011;6652;48.802;9.190;2024-03-02T12:09:04;1.65;;;1.08;;
13173;SDS011;6652;48.802;9.190;2024-03-02T12:11:38;1.80;;;0.83;;
13173;SDS011;6652;48.802;9.190;2024-03-02T12:14:10;1.10;;;1.00;;
13173;SDS011;6652;48.802;9.190;2024-03-02T12:16:43;0.98;;;0.82;;
13173;SDS011;6652;48.802;9.190;2024-03-02T12:19:10;0.85;;;0.75;;
13173;SDS011;6652;48.802;9.190;2024-03-02T12:21:39;0.70;;;0.70;;
13173;SDS011;6652;48.802;9.190;2024-03-02T12:24:06;1.17;;;0.70;;
13173;SDS011;6652;48.802;9.190;2024-03-02T12:26:33;1.80;;;0.70;;
13173;SDS011;6652;48.802;9.190;2024-03-02T12:32:01;1.85;;;0.90;;
13173;SDS011;6652;48.802;9.190;2024-03-02T12:34:28;2.65;;;0.70;;
13173;SDS011;6652;48.802;9.190;2024-03-02T12:36:59;1.30;;;0.70;;
13173;SDS011;6652;48.802;9.190;2024-03-02T12:39:44;1.67;;;1.00;;
13173;SDS011;6652;48.802;9.190;2024-03-02T12:42:11;2.65;;;1.20;;
13173;SDS011;6652;48.802;9.190;2024-03-02T12:44:41;1.13;;;0.90;;
13173;SDS011;6652;48.802;9.190;2024-03-02T12:47:09;1.58;;;0.68;;
13173;SDS011;6652;48.802;9.190;2024-03-02T12:49:37;1.45;;;1.05;;
13173;SDS011;6652;48.802;9.190;2024-03-02T12:52:06;1.55;;;0.60;;
13173;SDS011;6652;48.802;9.190;2024-03-02T12:54:34;2.13;;;1.15;;
13173;SDS011;6652;48.802;9.190;2024-03-02T12:57:01;0.98;;;0.95;;
13173;SDS011;6652;48.802;9.190;2024-03-02T12:59:31;1.67;;;0.90;;
13173;SDS011;6652;48.802;9.190;2024-03-02T13:02:07;1.77;;;1.20;;
13173;SDS011;6652;48.802;9.190;2024-03-02T13:04:35;2.17;;;1.00;;
13173;SDS011;6652;48.802;9.190;2024-03-02T13:07:02;1.00;;;0.90;;
13173;SDS011;6652;48.802;9.190;2024-03-02T13:09:30;1.23;;;1.00;;
13173;SDS011;6652;48.802;9.190;2024-03-02T13:11:58;1.83;;;0.90;;
13173;SDS011;6652;48.802;9.190;2024-03-02T13:14:26;1.30;;;0.77;;
13173;SDS011;6652;48.802;9.190;2024-03-02T13:16:53;2.10;;;1.17;;
13173;SDS011;6652;48.802;9.190;2024-03-02T13:19:30;1.98;;;1.10;;
13173;SDS011;6652;48.802;9.190;2024-03-02T13:22:00;1.55;;;0.95;;
13173;SDS011;6652;48.802;9.190;2024-03-02T13:24:31;0.68;;;0.68;;
13173;SDS011;6652;48.802;9.190;2024-03-02T13:26:59;1.80;;;0.90;;
13173;SDS011;6652;48.802;9.190;2024-03-02T13:29:29;2.67;;;0.90;;
13173;SDS011;6652;48.802;9.190;2024-03-02T13:32:01;1.33;;;0.82;;
13173;SDS011;6652;48.802;9.190;2024-03-02T13:34:31;0.98;;;0.82;;
13173;SDS011;6652;48.802;9.190;2024-03-02T13:36:59;1.63;;;1.02;;
13173;SDS011;6652;48.802;9.190;2024-03-02T13:39:27;1.75;;;1.00;;
13173;SDS011;6652;48.802;9.190;2024-03-02T13:41:56;1.55;;;0.93;;
13173;SDS011;6652;48.802;9.190;2024-03-02T13:44:43;2.42;;;1.20;;
13173;SDS011;6652;48.802;9.190;2024-03-02T13:47:20;4.00;;;0.93;;
13173;SDS011;6652;48.802;9.190;2024-03-02T13:52:47;2.70;;;1.20;;
13173;SDS011;6652;48.802;9.190;2024-03-02T13:55:15;1.08;;;0.95;;
13173;SDS011;6652;48.802;9.190;2024-03-02T13:57:43;1.60;;;1.13;;
13173;SDS011;6652;48.802;9.190;2024-03-02T14:00:10;3.08;;;1.00;;
13173;SDS011;6652;48.802;9.190;2024-03-02T14:02:40;0.90;;;0.90;;
13173;SDS011;6652;48.802;9.190;2024-03-02T14:08:21;2.33;;;0.80;;
13173;SDS011;6652;48.802;9.190;2024-03-02T14:10:59;1.13;;;0.98;;
13173;SDS011;6652;48.802;9.190;2024-03-02T14:14:21;3.65;;;1.20;;
13173;SDS011;6652;48.802;9.190;2024-03-02T14:19:59;2.55;;;1.30;;
13173;SDS011;6652;48.802;9.190;2024-03-02T14:25:59;4.45;;;1.10;;
13173;SDS011;6652;48.802;9.190;2024-03-02T14:28:38;3.67;;;1.40;;
13173;SDS011;6652;48.802;9.190;2024-03-02T14:31:09;2.00;;;1.20;;
13173;SDS011;6652;48.802;9.190;2024-03-02T14:33:50;1.42;;;0.82;;
13173;SDS011;6652;48.802;9.190;2024-03-02T14:36:31;0.82;;;0.70;;
13173;SDS011;6652;48.802;9.190;2024-03-02T14:41:59;2.03;;;0.93;;
13173;SDS011;6652;48.802;9.190;2024-03-02T14:44:40;1.05;;;0.80;;
13173;SDS011;6652;48.802;9.190;2024-03-02T14:47:23;1.73;;;1.00;;
13173;SDS011;6652;48.802;9.190;2024-03-02T14:50:20;3.38;;;1.00;;
13173;SDS011;6652;48.802;9.190;2024-03-02T14:53:14;2.42;;;1.10;;
13173;SDS011;6652;48.802;9.190;2024-03-02T14:56:05;1.30;;;1.00;;
13173;SDS011;6652;48.802;9.190;2024-03-02T14:58:32;1.10;;;1.00;;
13173;SDS011;6652;48.802;9.190;2024-03-02T15:01:00;3.45;;;1.23;;
13173;SDS011;6652;48.802;9.190;2024-03-02T15:03:28;1.98;;;0.85;;
13173;SDS011;6652;48.802;9.190;2024-03-02T15:05:55;2.72;;;1.10;;
13173;SDS011;6652;48.802;9.190;2024-03-02T15:08:23;1.58;;;1.00;;
13173;SDS011;6652;48.802;9.190;2024-03-02T15:10:50;2.33;;;1.08;;
13173;SDS011;6652;48.802;9.190;2024-03-02T15:13:19;2.30;;;1.20;;
13173;SDS011;6652;48.802;9.190;2024-03-02T15:15:46;1.15;;;0.80;;
13173;SDS011;6652;48.802;9.190;2024-03-02T15:18:13;1.67;;;0.90;;
13173;SDS011;6652;48.802;9.190;2024-03-02T15:20:40;2.63;;;1.10;;
13173;SDS011;6652;48.802;9.190;2024-03-02T15:23:07;2.40;;;1.17;;
13173;SDS011;6652;48.802;9.190;2024-03-02T15:25:33;1.48;;;0.70;;
13173;SDS011;6652;48.802;9.190;2024-03-02T15:28:01;2.38;;;1.10;;
13173;SDS011;6652;48.802;9.190;2024-03-02T15:30:31;2.70;;;1.17;;
13173;SDS011;6652;48.802;9.190;2024-03-02T15:32:59;6.32;;;1.63;;
13173;SDS011;6652;48.802;9.190;2024-03-02T15:35:27;1.83;;;1.30;;